Time;durP1;ratioP1;P1;durP2;ratioP2;P2;SDS_P1;SDS_P2;PMS_P1;PMS_P2;Temp;Humidity;BMP_temperature;BMP_pressure;BME280_temperature;BME280_humidity;BME280_pressure;Samples;Min_cycle;Max_cycle;Signal;HPM_P1;HPM_P2
2021/06/29 00:02:18;;;;;;;21.27;10.60;;;17.80;95.80;;;;;;4969293;28;20385;-86
2021/06/29 00:04:46;;;;;;;19.55;10.18;;;17.80;95.70;;;;;;4978152;28;20037;-85
2021/06/29 00:07:12;;;;;;;19.52;9.60;;;17.70;95.70;;;;;;4967306;28;20080;-86
2021/06/29 00:09:38;;;;;;;22.58;9.70;;;17.70;95.70;;;;;;4982068;28;20033;-86
2021/06/29 00:12:04;;;;;;;23.23;10.70;;;17.70;95.80;;;;;;4969265;28;20092;-86
2021/06/29 00:14:30;;;;;;;20.77;9.88;;;17.70;95.80;;;;;;5001090;28;20061;-86
2021/06/29 00:16:55;;;;;;;20.08;9.70;;;17.70;95.90;;;;;;4985762;28;20077;-86
2021/06/29 00:19:21;;;;;;;22.52;9.95;;;17.70;95.90;;;;;;4985985;28;20080;-85
2021/06/29 00:21:48;;;;;;;19.77;10.02;;;17.60;95.80;;;;;;4977966;28;20041;-86
2021/06/29 00:24:14;;;;;;;19.10;10.27;;;17.60;95.90;;;;;;5001161;28;20068;-86
2021/06/29 00:26:40;;;;;;;23.23;9.68;;;17.60;96.00;;;;;;4988029;28;20096;-86
2021/06/29 00:29:06;;;;;;;24.35;10.43;;;17.60;96.00;;;;;;4974229;28;20029;-85
2021/06/29 00:31:32;;;;;;;23.70;9.82;;;17.60;95.90;;;;;;4987476;28;20092;-85
2021/06/29 00:33:57;;;;;;;22.63;9.35;;;17.60;95.90;;;;;;4983267;28;20625;-86
2021/06/29 00:36:23;;;;;;;24.60;9.05;;;17.60;95.90;;;;;;4981419;28;20022;-86
2021/06/29 00:38:50;;;;;;;19.83;9.20;;;17.60;96.20;;;;;;4967064;28;20705;-85
2021/06/29 00:41:16;;;;;;;22.92;9.07;;;17.50;95.90;;;;;;5007289;28;20034;-86
2021/06/29 00:43:52;;;;;;;19.63;9.18;;;17.50;95.90;;;;;;4994275;28;20132;-86
2021/06/29 00:46:19;;;;;;;25.27;8.65;;;17.50;95.90;;;;;;4999273;28;20500;-86
2021/06/29 00:48:46;;;;;;;21.40;8.90;;;17.40;95.90;;;;;;4966452;28;20048;-86
2021/06/29 00:51:16;;;;;;;25.35;8.65;;;17.40;95.90;;;;;;5015009;28;20030;-85
2021/06/29 00:53:43;;;;;;;27.30;9.15;;;17.40;96.00;;;;;;4998717;28;20040;-86
2021/06/29 00:56:15;;;;;;;20.08;9.43;;;17.40;96.00;;;;;;4981844;28;20055;-86
2021/06/29 00:58:46;;;;;;;22.75;8.25;;;17.40;96.00;;;;;;4998890;28;20107;-86
2021/06/29 01:01:12;;;;;;;23.27;9.52;;;17.30;96.10;;;;;;4995936;28;20084;-86
2021/06/29 01:03:39;;;;;;;24.27;10.05;;;17.30;96.20;;;;;;4993119;28;20091;-86
2021/06/29 01:06:08;;;;;;;18.10;9.10;;;17.30;96.20;;;;;;4974998;28;20496;-86
2021/06/29 01:08:34;;;;;;;23.42;10.68;;;17.30;96.20;;;;;;5012899;28;20067;-86
2021/06/29 01:11:00;;;;;;;20.15;10.52;;;17.30;96.20;;;;;;4995442;28;20030;-86
2021/06/29 01:13:38;;;;;;;18.95;9.25;;;17.20;96.10;;;;;;4982748;28;20029;-86
2021/06/29 01:16:06;;;;;;;14.57;8.88;;;17.20;96.10;;;;;;4996345;28;20550;-85
2021/06/29 01:18:36;;;;;;;21.98;10.90;;;17.20;96.10;;;;;;4962689;28;20060;-86
2021/06/29 01:21:03;;;;;;;28.88;10.93;;;17.20;96.20;;;;;;4977840;28;21581;-86
2021/06/29 01:23:29;;;;;;;16.60;9.63;;;17.10;96.20;;;;;;4982745;28;20042;-86
2021/06/29 01:26:21;;;;;;;20.98;10.50;;;17.10;96.20;;;;;;4984722;28;20159;-86
2021/06/29 01:31:26;;;;;;;24.33;10.55;;;17.00;96.30;;;;;;5011714;28;20084;-86
2021/06/29 01:33:53;;;;;;;20.50;10.95;;;17.00;96.40;;;;;;4977075;28;20534;-86
2021/06/29 01:36:22;;;;;;;21.63;11.20;;;17.00;96.30;;;;;;4979274;28;20044;-86
2021/06/29 01:38:49;;;;;;;24.35;11.48;;;17.00;96.20;;;;;;4999513;28;20136;-85
2021/06/29 01:41:19;;;;;;;22.63;11.32;;;17.00;96.20;;;;;;4980273;28;20037;-85
2021/06/29 01:43:55;;;;;;;24.20;10.95;;;17.00;96.20;;;;;;4973680;28;20072;-86
2021/06/29 01:46:25;;;;;;;21.52;10.75;;;17.00;96.20;;;;;;4995374;28;20477;-85
2021/06/29 01:48:55;;;;;;;24.05;11.82;;;16.90;96.50;;;;;;4962869;28;20262;-85
2021/06/29 01:51:22;;;;;;;24.25;10.40;;;16.90;96.20;;;;;;4999210;28;20068;-85
2021/06/29 01:53:49;;;;;;;28.10;11.15;;;16.90;96.30;;;;;;5037414;28;20041;-86
2021/06/29 01:56:15;;;;;;;23.85;11.23;;;16.90;96.40;;;;;;4987172;28;20111;-85
2021/06/29 01:58:51;;;;;;;21.55;10.98;;;16.80;96.30;;;;;;4998665;28;20065;-85
2021/06/29 02:01:17;;;;;;;20.45;11.38;;;16.80;96.40;;;;;;4985312;28;20038;-85
2021/06/29 02:03:43;;;;;;;22.02;11.70;;;16.80;96.50;;;;;;4986339;28;20057;-86
2021/06/29 02:06:09;;;;;;;22.98;11.65;;;16.80;96.50;;;;;;4971053;28;20075;-85
2021/06/29 02:08:35;;;;;;;24.27;11.82;;;16.70;96.50;;;;;;4969826;28;20030;-85
2021/06/29 02:11:01;;;;;;;27.58;11.95;;;16.70;96.90;;;;;;4987603;28;20126;-85
2021/06/29 02:13:27;;;;;;;27.58;11.35;;;16.60;96.60;;;;;;4964441;28;20057;-85
2021/06/29 02:15:53;;;;;;;22.85;11.18;;;16.60;96.70;;;;;;4987428;28;20037;-86
2021/06/29 02:18:18;;;;;;;22.00;10.68;;;16.50;96.70;;;;;;4967708;28;20103;-86
2021/06/29 02:20:44;;;;;;;22.85;12.48;;;16.50;96.80;;;;;;4969188;28;20034;-86
2021/06/29 02:23:10;;;;;;;27.27;11.95;;;16.50;96.80;;;;;;4988706;28;20284;-85
2021/06/29 02:25:36;;;;;;;27.38;12.07;;;16.50;96.90;;;;;;4970937;28;20416;-85
2021/06/29 02:28:02;;;;;;;21.00;11.40;;;16.40;96.90;;;;;;4970286;28;20097;-86
2021/06/29 02:30:28;;;;;;;27.02;11.77;;;16.40;97.00;;;;;;4999322;28;20092;-85
2021/06/29 02:32:54;;;;;;;26.67;11.98;;;16.40;97.10;;;;;;4973991;28;20077;-86
2021/06/29 02:35:20;;;;;;;25.83;12.23;;;16.30;97.10;;;;;;4990316;28;20546;-85
2021/06/29 02:37:46;;;;;;;28.55;12.73;;;16.30;97.20;;;;;;4997852;28;20409;-86
2021/06/29 02:40:12;;;;;;;25.08;11.82;;;16.40;97.20;;;;;;4983566;28;20033;-86
2021/06/29 02:42:39;;;;;;;21.10;11.85;;;16.30;97.20;;;;;;4983755;28;20088;-86
2021/06/29 02:45:07;;;;;;;21.45;11.05;;;16.30;97.30;;;;;;4985745;28;20083;-86
2021/06/29 02:47:38;;;;;;;23.50;11.55;;;16.30;97.30;;;;;;4996262;28;20044;-86
2021/06/29 02:50:07;;;;;;;21.90;12.27;;;16.30;97.30;;;;;;5000336;28;20033;-86
2021/06/29 02:52:33;;;;;;;26.73;12.20;;;16.30;97.40;;;;;;4995997;28;20452;-86
2021/06/29 02:55:00;;;;;;;25.23;12.27;;;16.30;97.40;;;;;;4986260;28;20109;-86
2021/06/29 02:57:26;;;;;;;26.33;12.45;;;16.30;97.40;;;;;;4998800;28;20463;-86
2021/06/29 02:59:53;;;;;;;28.55;12.40;;;16.30;97.40;;;;;;4968562;28;20076;-86
2021/06/29 03:02:19;;;;;;;25.38;12.45;;;16.30;97.40;;;;;;4988405;28;20033;-86
2021/06/29 03:04:45;;;;;;;30.92;11.90;;;16.30;97.40;;;;;;4966566;28;20049;-86
2021/06/29 03:07:11;;;;;;;27.60;12.30;;;16.30;97.50;;;;;;4969553;28;20448;-86
2021/06/29 03:09:37;;;;;;;23.08;12.35;;;16.40;97.50;;;;;;4984476;28;20044;-86
2021/06/29 03:12:03;;;;;;;28.80;12.80;;;16.30;97.50;;;;;;4983344;28;20032;-86
2021/06/29 03:14:29;;;;;;;26.27;12.52;;;16.30;97.50;;;;;;4981969;28;20037;-86
2021/06/29 03:16:55;;;;;;;36.35;13.25;;;16.30;97.60;;;;;;4968908;28;20033;-86
2021/06/29 03:19:20;;;;;;;27.02;11.23;;;16.40;97.70;;;;;;4968917;28;20109;-86
2021/06/29 03:21:46;;;;;;;29.45;12.90;;;16.30;97.60;;;;;;4970649;28;20040;-86
2021/06/29 03:24:12;;;;;;;29.50;13.50;;;16.30;97.60;;;;;;5001901;28;20036;-86
2021/06/29 03:26:38;;;;;;;24.77;12.95;;;16.30;97.70;;;;;;4989565;28;20037;-86
2021/06/29 03:29:04;;;;;;;29.98;13.55;;;16.30;97.70;;;;;;4995276;28;20029;-86
2021/06/29 03:31:32;;;;;;;28.08;12.35;;;16.30;97.70;;;;;;5005136;28;20112;-86
2021/06/29 03:33:58;;;;;;;28.70;11.30;;;16.30;97.70;;;;;;5002502;28;20366;-86
2021/06/29 03:36:24;;;;;;;27.27;11.85;;;16.30;97.70;;;;;;4971041;28;20025;-85
2021/06/29 03:38:50;;;;;;;29.55;11.65;;;16.30;97.70;;;;;;4985652;28;20254;-86
2021/06/29 03:41:16;;;;;;;27.70;12.32;;;16.30;97.60;;;;;;4983764;28;20054;-86
2021/06/29 03:44:01;;;;;;;30.25;12.07;;;16.30;97.70;;;;;;4974959;28;20068;-86
2021/06/29 03:46:27;;;;;;;25.05;11.50;;;16.30;97.70;;;;;;4981830;28;20139;-86
2021/06/29 03:48:53;;;;;;;23.40;11.45;;;16.30;97.80;;;;;;4969937;28;20521;-86
2021/06/29 03:51:19;;;;;;;31.48;12.95;;;16.30;97.80;;;;;;4968366;28;20109;-86
2021/06/29 03:53:45;;;;;;;27.10;12.18;;;16.30;97.90;;;;;;4968775;28;20505;-86
2021/06/29 03:56:24;;;;;;;35.80;12.57;;;16.30;97.90;;;;;;4995858;28;20091;-86
2021/06/29 03:58:51;;;;;;;31.90;12.82;;;16.30;97.90;;;;;;4978289;28;20038;-86
2021/06/29 04:01:17;;;;;;;28.27;12.02;;;16.30;97.90;;;;;;4994080;28;20079;-86
2021/06/29 04:03:43;;;;;;;26.15;12.02;;;16.30;97.90;;;;;;4978672;28;20116;-86
2021/06/29 04:06:09;;;;;;;27.98;12.85;;;16.30;98.00;;;;;;4994498;28;20421;-86
2021/06/29 04:08:35;;;;;;;29.23;12.02;;;16.30;98.00;;;;;;4983790;28;20045;-86
2021/06/29 04:11:01;;;;;;;27.17;12.15;;;16.30;98.00;;;;;;4984246;28;20026;-86
2021/06/29 04:13:29;;;;;;;25.92;10.90;;;16.30;98.00;;;;;;4990950;28;20105;-86
2021/06/29 04:15:55;;;;;;;20.25;11.50;;;16.30;98.00;;;;;;4987605;28;20413;-86
2021/06/29 04:18:21;;;;;;;36.92;11.27;;;16.30;98.10;;;;;;4971651;28;20034;-86
2021/06/29 04:20:47;;;;;;;35.25;12.35;;;16.30;98.10;;;;;;4982717;28;20038;-85
2021/06/29 04:23:13;;;;;;;28.33;11.77;;;16.30;98.00;;;;;;4967479;28;20345;-86
2021/06/29 04:25:40;;;;;;;37.00;12.45;;;16.30;98.10;;;;;;4984499;28;20473;-86
2021/06/29 04:28:06;;;;;;;50.22;13.57;;;16.30;98.10;;;;;;4998139;28;20476;-85
2021/06/29 04:30:32;;;;;;;38.95;12.73;;;16.30;98.20;;;;;;4996334;28;20030;-85
2021/06/29 04:32:57;;;;;;;41.00;13.48;;;16.30;98.20;;;;;;4987380;28;20139;-85
2021/06/29 04:35:23;;;;;;;67.95;15.32;;;16.40;98.20;;;;;;4963903;28;20628;-86
2021/06/29 04:37:49;;;;;;;70.00;15.00;;;16.40;98.20;;;;;;4998504;28;20130;-86
2021/06/29 04:40:16;;;;;;;54.55;13.13;;;16.40;98.20;;;;;;4983597;28;20443;-86
2021/06/29 04:42:42;;;;;;;66.30;15.10;;;16.30;98.20;;;;;;4998582;28;20505;-86
2021/06/29 04:45:09;;;;;;;64.05;15.48;;;16.40;98.20;;;;;;4980856;28;20229;-86
2021/06/29 04:47:39;;;;;;;53.80;14.32;;;16.40;98.50;;;;;;4969083;28;20072;-86
2021/06/29 04:50:05;;;;;;;64.28;16.23;;;16.40;98.30;;;;;;4986081;28;20481;-86
2021/06/29 04:52:34;;;;;;;68.25;17.45;;;16.40;98.20;;;;;;4986867;28;20029;-87
2021/06/29 04:55:00;;;;;;;68.18;15.85;;;16.40;98.30;;;;;;4988282;28;20504;-86
2021/06/29 04:57:27;;;;;;;58.67;15.98;;;16.40;98.30;;;;;;4981668;28;20073;-86
2021/06/29 04:59:53;;;;;;;63.35;16.85;;;16.40;98.30;;;;;;4966634;28;20041;-86
2021/06/29 05:02:18;;;;;;;56.20;14.68;;;16.50;98.40;;;;;;4981887;28;20037;-86
2021/06/29 05:04:44;;;;;;;65.80;17.25;;;16.50;98.40;;;;;;4968375;28;20061;-86
2021/06/29 05:07:10;;;;;;;61.95;17.73;;;16.50;98.40;;;;;;4956194;28;20416;-86
2021/06/29 05:09:36;;;;;;;63.97;17.10;;;16.50;98.30;;;;;;4974393;28;20034;-86
2021/06/29 05:12:02;;;;;;;71.13;18.55;;;16.50;98.30;;;;;;4985237;28;20034;-86
2021/06/29 05:14:28;;;;;;;72.55;19.02;;;16.60;98.40;;;;;;4970525;28;20042;-86
2021/06/29 05:16:54;;;;;;;71.45;18.15;;;16.60;98.50;;;;;;4959432;28;20475;-87
2021/06/29 05:19:19;;;;;;;64.65;17.77;;;16.60;98.50;;;;;;4973800;28;20073;-87
2021/06/29 05:21:45;;;;;;;62.78;16.85;;;16.60;98.50;;;;;;4977765;28;20104;-87
2021/06/29 05:24:11;;;;;;;58.13;17.67;;;16.60;98.50;;;;;;4971989;28;20069;-86
2021/06/29 05:26:37;;;;;;;56.70;16.92;;;16.60;98.40;;;;;;4963677;28;20045;-88
2021/06/29 05:29:05;;;;;;;66.57;18.52;;;16.70;98.50;;;;;;4978567;28;20444;-87
2021/06/29 05:31:31;;;;;;;67.63;18.20;;;16.70;98.50;;;;;;4973200;28;20112;-89
2021/06/29 05:33:57;;;;;;;67.65;18.55;;;16.70;98.50;;;;;;4987439;28;20111;-87
2021/06/29 05:36:27;;;;;;;65.30;19.88;;;16.70;98.50;;;;;;4959297;28;20304;-87
2021/06/29 05:38:52;;;;;;;73.78;18.95;;;16.70;98.60;;;;;;4993936;28;20127;-87
2021/06/29 05:41:18;;;;;;;76.03;19.73;;;16.70;98.60;;;;;;4973214;28;20692;-87
2021/06/29 05:43:44;;;;;;;64.72;19.38;;;16.70;98.70;;;;;;4980147;28;20038;-87
2021/06/29 05:46:11;;;;;;;68.05;19.40;;;16.70;98.70;;;;;;4970886;28;20416;-86
2021/06/29 05:48:40;;;;;;;69.57;19.50;;;16.80;98.80;;;;;;4953259;28;21758;-87
2021/06/29 05:51:06;;;;;;;67.60;19.48;;;16.80;98.80;;;;;;4961224;28;20038;-87
2021/06/29 05:53:32;;;;;;;61.58;19.58;;;16.80;98.80;;;;;;4992394;28;20037;-87
2021/06/29 05:55:59;;;;;;;50.40;18.00;;;16.80;98.80;;;;;;4989528;28;20095;-87
2021/06/29 05:58:25;;;;;;;53.45;18.50;;;16.80;98.80;;;;;;4972568;28;20046;-87
2021/06/29 06:00:51;;;;;;;51.58;18.63;;;16.90;98.80;;;;;;4987828;28;20885;-86
2021/06/29 06:03:18;;;;;;;61.25;19.30;;;16.90;98.70;;;;;;4974600;28;20033;-87
2021/06/29 06:05:44;;;;;;;58.95;19.00;;;17.00;98.70;;;;;;4978267;28;20604;-88
2021/06/29 06:08:10;;;;;;;55.78;19.00;;;17.00;98.70;;;;;;4997460;28;20029;-86
2021/06/29 06:10:36;;;;;;;57.50;19.17;;;17.00;98.70;;;;;;4999253;28;20087;-88
2021/06/29 06:13:02;;;;;;;59.30;20.20;;;17.10;98.80;;;;;;4989373;28;20323;-85
2021/06/29 06:15:36;;;;;;;56.00;19.20;;;17.10;98.80;;;;;;5011127;28;20072;-86
2021/06/29 06:18:06;;;;;;;52.28;18.65;;;17.20;98.80;;;;;;4975823;28;20680;-88
2021/06/29 06:20:34;;;;;;;58.28;20.33;;;17.20;98.70;;;;;;5008521;28;20040;-85
2021/06/29 06:23:00;;;;;;;47.10;18.35;;;17.30;98.70;;;;;;4988985;28;20104;-86
2021/06/29 06:25:26;;;;;;;47.92;19.00;;;17.40;98.70;;;;;;5021713;28;20230;-85
2021/06/29 06:27:52;;;;;;;46.67;18.10;;;17.40;98.60;;;;;;4991577;28;20037;-87
2021/06/29 06:30:19;;;;;;;54.15;19.15;;;17.50;98.50;;;;;;4984143;28;20067;-86
2021/06/29 06:32:45;;;;;;;40.13;17.58;;;17.60;98.50;;;;;;5008141;28;20137;-88
2021/06/29 06:35:11;;;;;;;45.92;17.75;;;17.70;98.80;;;;;;5016916;28;20053;-90
2021/06/29 06:37:37;;;;;;;47.28;17.98;;;17.70;98.40;;;;;;5007708;28;20657;-86
2021/06/29 06:40:05;;;;;;;45.38;18.55;;;17.80;98.30;;;;;;5018650;28;20045;-87
2021/06/29 06:42:31;;;;;;;45.53;19.08;;;17.90;98.30;;;;;;4997282;28;20025;-87
2021/06/29 06:44:57;;;;;;;46.22;19.25;;;17.90;98.30;;;;;;4970555;28;20255;-87
2021/06/29 06:47:24;;;;;;;47.33;18.25;;;17.90;98.10;;;;;;4993940;28;20132;-88
2021/06/29 06:49:50;;;;;;;51.83;20.70;;;17.90;98.10;;;;;;4993589;28;20136;-88
2021/06/29 06:52:17;;;;;;;49.90;20.50;;;17.90;98.10;;;;;;4982596;28;20064;-87
2021/06/29 06:54:43;;;;;;;44.97;18.35;;;18.00;98.10;;;;;;4990575;28;20574;-85
2021/06/29 06:57:09;;;;;;;47.50;19.73;;;17.90;98.00;;;;;;4993266;28;20033;-85
2021/06/29 06:59:36;;;;;;;41.50;18.13;;;18.00;98.10;;;;;;5009155;28;20034;-85
2021/06/29 07:02:02;;;;;;;42.60;19.40;;;18.00;98.10;;;;;;5005546;28;20037;-85
2021/06/29 07:04:28;;;;;;;50.35;19.08;;;17.90;98.10;;;;;;5024142;28;20034;-85
2021/06/29 07:06:54;;;;;;;38.92;18.08;;;18.00;98.20;;;;;;4992382;28;20369;-86
2021/06/29 07:09:20;;;;;;;32.72;16.80;;;18.00;98.20;;;;;;4974779;28;20033;-86
2021/06/29 07:11:47;;;;;;;47.10;19.33;;;18.10;98.20;;;;;;4987807;28;20044;-86
2021/06/29 07:14:13;;;;;;;40.92;18.63;;;18.10;98.10;;;;;;4988230;28;20034;-85
2021/06/29 07:16:39;;;;;;;43.05;18.33;;;18.20;98.10;;;;;;5000914;28;20033;-87
2021/06/29 07:19:05;;;;;;;49.45;19.05;;;18.20;98.00;;;;;;4972481;28;20049;-85
2021/06/29 07:21:31;;;;;;;46.30;19.73;;;18.30;97.90;;;;;;4992141;28;20037;-85
2021/06/29 07:23:57;;;;;;;45.20;20.77;;;18.30;97.90;;;;;;4988860;28;20036;-86
2021/06/29 07:26:23;;;;;;;44.10;20.48;;;18.30;97.90;;;;;;5019470;28;20061;-84
2021/06/29 07:28:50;;;;;;;47.00;19.73;;;18.30;97.80;;;;;;4969759;28;20354;-85
2021/06/29 07:31:19;;;;;;;46.20;19.60;;;18.40;97.80;;;;;;4981376;28;20061;-88
2021/06/29 07:33:46;;;;;;;54.45;22.73;;;18.40;97.70;;;;;;4984323;28;20045;-88
2021/06/29 07:36:15;;;;;;;46.67;21.15;;;18.40;97.60;;;;;;4962747;28;20146;-86
2021/06/29 07:38:41;;;;;;;46.35;20.17;;;18.40;97.70;;;;;;4984267;28;20408;-85
2021/06/29 07:41:06;;;;;;;54.10;20.13;;;18.40;97.70;;;;;;4964959;28;20055;-87
2021/06/29 07:43:32;;;;;;;47.17;20.40;;;18.40;97.70;;;;;;4972422;28;20045;-87
2021/06/29 07:45:58;;;;;;;52.85;21.55;;;18.50;97.70;;;;;;4972524;28;20423;-87
2021/06/29 07:48:24;;;;;;;51.90;21.10;;;18.50;97.70;;;;;;4992151;28;20132;-85
2021/06/29 07:50:51;;;;;;;60.05;21.70;;;18.60;97.60;;;;;;4991561;28;20120;-85
2021/06/29 07:53:17;;;;;;;52.65;19.67;;;18.60;97.60;;;;;;4994013;28;20087;-86
2021/06/29 07:55:42;;;;;;;56.55;20.45;;;18.60;97.60;;;;;;4994145;28;20037;-86
2021/06/29 07:58:08;;;;;;;49.92;20.65;;;18.70;97.70;;;;;;5009247;28;20116;-87
2021/06/29 08:00:36;;;;;;;49.90;21.30;;;18.70;97.60;;;;;;5009548;28;20041;-84
2021/06/29 08:03:03;;;;;;;53.08;21.38;;;18.70;97.60;;;;;;4993041;28;20061;-85
2021/06/29 08:05:30;;;;;;;54.03;21.20;;;18.80;97.60;;;;;;5003826;28;20080;-86
2021/06/29 08:07:56;;;;;;;48.42;21.13;;;18.80;97.50;;;;;;5003963;28;20041;-86
2021/06/29 08:10:21;;;;;;;47.78;21.10;;;18.90;97.50;;;;;;4991132;28;20318;-85
2021/06/29 08:12:48;;;;;;;53.20;21.10;;;18.90;97.40;;;;;;4990943;28;20120;-88
2021/06/29 08:15:17;;;;;;;49.20;20.95;;;19.00;97.20;;;;;;4990802;28;20025;-86
2021/06/29 08:17:45;;;;;;;53.15;20.52;;;19.00;97.10;;;;;;5004239;28;20025;-85
2021/06/29 08:20:13;;;;;;;51.53;22.15;;;19.10;97.20;;;;;;4990572;28;20599;-86
2021/06/29 08:22:38;;;;;;;44.08;21.33;;;19.20;97.20;;;;;;4990478;28;20033;-87
2021/06/29 08:25:06;;;;;;;43.55;22.15;;;19.20;97.00;;;;;;5009307;28;20029;-87
2021/06/29 08:27:32;;;;;;;45.45;20.95;;;19.20;97.00;;;;;;5003875;28;20061;-86
2021/06/29 08:29:58;;;;;;;47.95;22.48;;;19.30;96.80;;;;;;5016678;28;20076;-86
2021/06/29 08:32:25;;;;;;;47.33;20.25;;;19.40;96.70;;;;;;4988722;28;20064;-86
2021/06/29 08:34:51;;;;;;;43.22;21.50;;;19.40;96.60;;;;;;5000721;28;20064;-87
2021/06/29 08:37:17;;;;;;;42.85;20.92;;;19.50;96.50;;;;;;4989980;28;20033;-85
2021/06/29 08:39:43;;;;;;;48.20;22.27;;;19.50;96.50;;;;;;4965403;28;20033;-87
2021/06/29 08:42:10;;;;;;;38.85;20.60;;;19.60;96.40;;;;;;4971477;28;20044;-87
2021/06/29 08:44:36;;;;;;;47.40;22.88;;;19.60;96.40;;;;;;4988954;28;20041;-86
2021/06/29 08:47:02;;;;;;;46.30;20.77;;;19.60;96.30;;;;;;4955563;28;20045;-86
2021/06/29 08:49:29;;;;;;;47.92;23.25;;;19.70;96.20;;;;;;4972943;28;20034;-86
2021/06/29 08:51:57;;;;;;;42.22;22.17;;;19.80;96.10;;;;;;4990381;28;20075;-85
2021/06/29 08:54:23;;;;;;;47.55;21.30;;;19.80;96.00;;;;;;5006385;28;20065;-86
2021/06/29 08:56:49;;;;;;;48.42;22.33;;;19.90;95.80;;;;;;4986225;28;20088;-87
2021/06/29 08:59:15;;;;;;;36.33;21.00;;;19.90;95.70;;;;;;4966759;28;20038;-85
2021/06/29 09:01:41;;;;;;;41.63;21.73;;;20.00;95.60;;;;;;5004800;28;20124;-86
2021/06/29 09:04:07;;;;;;;40.85;21.48;;;19.90;95.40;;;;;;4971136;28;20037;-86
2021/06/29 09:06:37;;;;;;;49.90;21.05;;;20.00;95.40;;;;;;4989136;28;20037;-87
2021/06/29 09:09:22;;;;;;;45.13;21.55;;;20.00;95.40;;;;;;5013200;28;20037;-85
2021/06/29 09:11:48;;;;;;;43.38;21.42;;;20.00;95.30;;;;;;5015360;28;20511;-86
2021/06/29 09:14:16;;;;;;;42.65;20.90;;;19.90;95.40;;;;;;4986872;28;20033;-86
2021/06/29 09:16:43;;;;;;;37.95;22.02;;;20.00;95.50;;;;;;4971993;28;20479;-88
2021/06/29 09:19:09;;;;;;;35.03;20.48;;;20.00;95.40;;;;;;4985488;28;20503;-85
2021/06/29 09:21:38;;;;;;;32.63;19.30;;;20.00;95.30;;;;;;4983463;28;20393;-85
2021/06/29 09:24:05;;;;;;;36.97;19.80;;;20.00;95.40;;;;;;4967127;28;20038;-84
2021/06/29 09:26:38;;;;;;;36.22;19.42;;;20.10;95.40;;;;;;4984158;28;20045;-86
2021/06/29 09:29:06;;;;;;;35.97;20.83;;;20.10;95.40;;;;;;5024361;28;20030;-88
2021/06/29 09:31:36;;;;;;;37.55;20.10;;;20.10;95.40;;;;;;4991215;28;20046;-88
2021/06/29 09:34:07;;;;;;;39.30;19.15;;;20.10;95.40;;;;;;5006605;28;20069;-85
2021/06/29 09:36:38;;;;;;;39.00;20.00;;;20.10;95.50;;;;;;5003553;28;20600;-85
2021/06/29 09:39:12;;;;;;;37.60;19.75;;;20.20;95.50;;;;;;5005607;28;20556;-84
2021/06/29 09:41:39;;;;;;;33.58;18.33;;;20.20;95.40;;;;;;5001068;28;20129;-85
2021/06/29 09:44:10;;;;;;;33.60;18.30;;;20.20;95.20;;;;;;4986120;28;20045;-86
2021/06/29 09:46:38;;;;;;;31.83;18.83;;;20.10;95.10;;;;;;5003218;28;20120;-86
2021/06/29 09:49:14;;;;;;;32.67;19.25;;;20.10;95.10;;;;;;4989960;28;20037;-86
2021/06/29 09:51:44;;;;;;;40.10;20.30;;;20.10;95.20;;;;;;4998035;28;20042;-85
2021/06/29 09:54:11;;;;;;;40.25;21.10;;;20.10;95.20;;;;;;4999977;28;20069;-84
2021/06/29 09:56:46;;;;;;;43.70;21.88;;;20.10;95.10;;;;;;4984629;28;20033;-85
2021/06/29 09:59:18;;;;;;;40.03;21.15;;;20.00;95.00;;;;;;4997011;28;20084;-85
2021/06/29 10:01:44;;;;;;;37.03;20.98;;;20.10;95.00;;;;;;5000521;28;20056;-86
2021/06/29 10:04:11;;;;;;;45.35;22.52;;;20.10;95.00;;;;;;4993474;28;20034;-85
2021/06/29 10:06:38;;;;;;;41.05;20.02;;;20.10;95.10;;;;;;4971137;28;20060;-85
2021/06/29 10:09:10;;;;;;;45.15;20.52;;;20.10;95.10;;;;;;5004948;28;20064;-85
2021/06/29 10:11:38;;;;;;;39.38;20.88;;;20.10;95.00;;;;;;5002652;28;20041;-85
2021/06/29 10:14:06;;;;;;;40.78;20.88;;;20.10;94.90;;;;;;4996002;28;20056;-85
2021/06/29 10:16:46;;;;;;;43.38;21.85;;;20.20;94.80;;;;;;4996073;28;20042;-84
2021/06/29 10:19:24;;;;;;;45.88;21.50;;;20.10;94.80;;;;;;4998257;28;20574;-84
2021/06/29 10:21:52;;;;;;;39.15;21.63;;;20.10;94.90;;;;;;4981370;28;20256;-85
2021/06/29 10:24:21;;;;;;;42.75;21.33;;;20.00;95.00;;;;;;5005604;28;20400;-84
2021/06/29 10:26:49;;;;;;;44.58;23.92;;;20.00;95.10;;;;;;5010771;28;20050;-85
2021/06/29 10:29:16;;;;;;;44.00;21.85;;;19.90;95.10;;;;;;4999211;28;20033;-85
2021/06/29 10:31:46;;;;;;;43.75;23.75;;;19.80;95.10;;;;;;4986888;28;20041;-85
2021/06/29 10:34:13;;;;;;;43.90;22.95;;;19.80;95.20;;;;;;4999894;28;20554;-84
2021/06/29 10:36:48;;;;;;;47.75;24.27;;;19.80;95.30;;;;;;5003582;28;20382;-85
2021/06/29 10:39:24;;;;;;;53.28;24.38;;;19.90;95.40;;;;;;5020151;28;20321;-84
2021/06/29 10:42:26;;;;;;;56.88;25.27;;;19.90;95.40;;;;;;5001368;28;20038;-85
2021/06/29 10:44:52;;;;;;;54.17;25.85;;;19.90;95.40;;;;;;4922601;29;20211;-85
2021/06/29 10:47:28;;;;;;;50.63;23.48;;;19.80;95.50;;;;;;4959212;28;20049;-85
2021/06/29 10:50:01;;;;;;;47.75;24.70;;;19.80;95.50;;;;;;5004817;28;20033;-86
2021/06/29 10:52:28;;;;;;;48.55;25.13;;;19.80;95.60;;;;;;4991135;28;20048;-86
2021/06/29 10:54:57;;;;;;;56.45;24.48;;;19.80;95.60;;;;;;4990689;28;20481;-86
2021/06/29 10:57:45;;;;;;;54.60;25.38;;;19.80;95.50;;;;;;5001620;28;20053;-85
2021/06/29 11:00:20;;;;;;;49.88;24.10;;;19.80;95.50;;;;;;4984586;28;20055;-87
2021/06/29 11:03:07;;;;;;;52.65;24.35;;;19.80;95.50;;;;;;4986984;28;20052;-86
2021/06/29 11:05:41;;;;;;;51.97;24.45;;;19.70;95.40;;;;;;5001528;28;20045;-87
2021/06/29 11:08:16;;;;;;;52.22;23.98;;;19.70;95.60;;;;;;4997280;28;20033;-87
2021/06/29 11:10:48;;;;;;;51.30;25.17;;;19.60;95.60;;;;;;5027146;28;20041;-86
2021/06/29 11:13:16;;;;;;;56.65;25.35;;;19.60;95.60;;;;;;5023180;28;20432;-87
2021/06/29 11:15:55;;;;;;;57.53;26.20;;;19.60;95.80;;;;;;5020746;28;20032;-87
2021/06/29 11:18:21;;;;;;;54.30;24.38;;;19.50;95.80;;;;;;5010237;28;20092;-86
2021/06/29 11:20:51;;;;;;;51.08;26.27;;;19.60;96.00;;;;;;5024403;28;20037;-88
2021/06/29 11:23:18;;;;;;;59.55;27.02;;;19.60;96.00;;;;;;5017960;28;20046;-87
2021/06/29 11:25:53;;;;;;;62.22;26.30;;;19.60;95.90;;;;;;4985818;28;20338;-86
2021/06/29 11:28:43;;;;;;;59.22;26.58;;;19.50;95.70;;;;;;4999132;28;20412;-87
2021/06/29 11:31:11;;;;;;;56.47;26.52;;;19.50;95.70;;;;;;5014794;28;20502;-87
2021/06/29 11:33:40;;;;;;;50.58;25.02;;;19.40;95.80;;;;;;5012261;28;20034;-86
2021/06/29 11:36:37;;;;;;;49.80;24.95;;;19.30;95.80;;;;;;5025773;28;20523;-86
2021/06/29 11:39:15;;;;;;;53.08;26.25;;;19.30;96.20;;;;;;4988422;28;20046;-86
2021/06/29 11:41:43;;;;;;;55.55;26.17;;;19.30;95.90;;;;;;5020715;28;20091;-85
2021/06/29 11:44:09;;;;;;;51.53;25.75;;;19.30;95.90;;;;;;4985120;28;20814;-86
2021/06/29 11:47:05;;;;;;;49.58;26.85;;;19.40;95.90;;;;;;5002084;28;20129;-85
2021/06/29 11:49:48;;;;;;;56.28;26.73;;;19.40;95.80;;;;;;5017148;28;20033;-85
2021/06/29 11:52:15;;;;;;;57.60;26.88;;;19.40;95.80;;;;;;4995410;28;20042;-85
2021/06/29 11:55:06;;;;;;;56.45;27.95;;;19.40;95.70;;;;;;4998785;28;20416;-85
2021/06/29 11:57:42;;;;;;;54.38;27.63;;;19.30;95.60;;;;;;4986235;28;20128;-84
2021/06/29 12:00:26;;;;;;;59.67;26.42;;;19.30;95.60;;;;;;5013644;28;20095;-85
2021/06/29 12:02:55;;;;;;;63.67;29.10;;;19.20;95.70;;;;;;5004046;28;20033;-86
2021/06/29 12:05:28;;;;;;;64.43;29.85;;;19.30;96.10;;;;;;5005221;28;20064;-85
2021/06/29 12:08:00;;;;;;;62.63;27.58;;;19.30;95.80;;;;;;5009845;28;20045;-86
2021/06/29 12:10:32;;;;;;;58.53;27.40;;;19.30;95.80;;;;;;4986324;28;20385;-85
2021/06/29 12:13:08;;;;;;;57.65;26.90;;;19.30;95.90;;;;;;5005025;28;20098;-86
2021/06/29 12:15:52;;;;;;;59.17;26.77;;;19.30;95.90;;;;;;5007860;28;20453;-87
2021/06/29 12:18:36;;;;;;;58.90;25.60;;;19.30;95.90;;;;;;5002105;28;20038;-86
2021/06/29 12:21:05;;;;;;;56.83;28.77;;;19.30;95.80;;;;;;5020570;28;20045;-86
2021/06/29 12:23:38;;;;;;;54.67;28.83;;;19.30;95.80;;;;;;5001117;28;20530;-86
2021/06/29 12:26:12;;;;;;;55.05;28.95;;;19.30;95.70;;;;;;4988219;28;20036;-85
2021/06/29 12:28:39;;;;;;;58.72;29.17;;;19.30;95.70;;;;;;5007774;28;20050;-85
2021/06/29 12:31:11;;;;;;;51.75;28.08;;;19.30;95.80;;;;;;4988342;28;20033;-86
2021/06/29 12:33:41;;;;;;;52.40;27.50;;;19.20;95.70;;;;;;5008742;28;20166;-86
2021/06/29 12:36:11;;;;;;;56.97;28.45;;;19.20;95.80;;;;;;5008089;28;20049;-86
2021/06/29 12:38:49;;;;;;;58.92;28.50;;;19.20;95.80;;;;;;5022194;28;20037;-86